Detall de PIREP

Printer-friendly versionPDF version

[2013/10/07 09:33:00]
Flight IATA:CT2206
Pilot Number:042
Company ICAO:CAT
Aircraft Type:F70/A
PAX:15
Aircraft Registration:PFJ
Departing Airport: LFMP
Destination Airport: LFSB
Alternate Airport:LFLL
Online: VATSIM
Route:SIJAN A27 MOU G21 RLP G4 LUL G42 ARPUS
Flight Level:F180
No Slew and time accel
No pause
Crash detect
Detect pilot in Cockpit between each 30 and 45 minutes
09:33 Zero fuel Weight: 72666 Lbs, Fuel Weight: 22691 Lbs
09:33 VATSIM:LFMP 070900Z 31008KT 280V350 CAVOK 21/09 Q1022 NOSIG
09:33 VATSIM:LFSB 070900Z 36005KT 9999 BKN008 OVC020 13/11 Q1025 NOSIG
09:33 VOICE CATALONIAN
09:43 Parking Brakes off
09:47 Take-off
09:47 Take off Weight: 94965 Lbs
09:47 Wind: 000º @ 002 Knots Heading: 328º
09:47 POS N42º 45´ 01´´ E002º 51´ 53´´
09:47 Gear Up: 164 Knots
09:47 Flaps:2 at 164 Knots
09:47 Flaps:1 at 174 Knots
09:47 Flaps:0 at 185 Knots
09:57 TOC
09:57 Fuel Weight: 20973 Lb
10:02 Wind:320º@048 Knots Heading: 001º Ground Speed: 366 Knots Altitude 17805 ft
10:17 Wind:323º@051 Knots Heading: 357º Ground Speed: 358 Knots Altitude 17785 ft
10:32 Wind:325º@052 Knots Heading: 035º Ground Speed: 382 Knots Altitude 17808 ft
10:47 Wind:333º@056 Knots Heading: 100º Ground Speed: 425 Knots Altitude 17828 ft
10:52 TOD
10:52 Fuel Weight: 15630 Lb
11:00 Flaps:1 at 182 Knots
11:02 Wind:024º@004 Knots Heading: 338º Ground Speed: 185 Knots Altitude 4045 ft
11:05 Gear Down: 171 Knots
11:05 Flaps:2 at 171 Knots
11:05 Flaps:3 at 165 Knots
11:08 TouchDown:Rate -115 ft/min Speed: 142 Knots
11:09 VATSIM:LFSB 071030Z 35006KT 9999 BKN013 OVC018 13/11 Q1025 NOSIG
11:09 Land
11:09 Wind:139º@009 Knots
11:09 Heading: 153º
11:09 Flight Duration: 01:22
11:09 Landing Weight: 87275 Lbs
11:09 POS N47º 36´ 14´´ E007º 31´ 10´´
11:13 Parking brakes on
11:13 Block to Block Duration: 01:30
11:13 Final Fuel: 14340 Lbls
11:13 Spent Fuel: 8350 Lbls
11:13 Flight Length: 463 NM
11:13 TOD Land Length: 73 NM

Exportar CSV

Powered by Drupal - Modified by Danger4k